OpenBCM V1.07b6_bn2 (Linux)

Packet Radio Mailbox

FFLB0X

[[FFL-B0X]]

 Login: GAST





  
     # Von      An           Nr Datum    @      Bytes LT  Titel

     3 FFLB0X > WXCAM.........1 21.07.24 WX      104k   1 (BIN) Webcam DM0FFL J
    15 DAR182 > INFO........179 20.07.24 EU       564 999 HS0NET/HS1NET/DNX530/
    16 FT0BOX > HUMOR......1081 20.07.24 DEU      403 999 Witz des Tages
    17 FT0BOX > HUMOR......1080 20.07.24 DEU      252 999 Witz des Tages
    18 FT0BOX > HUMOR......1079 20.07.24 DEU      243 999 Witz des Tages
    27 FT0BOX > HUMOR......1078 20.07.24 DEU      395 999 Witz des Tages
    44 APOLO1 > APPS..........1 20.07.24 EU       612   3 Pokemon GO fuers Hand
    45 DHH841 > BILDER.......66 19.07.24 BCMNET  210k 999 (BIN) QRV in CW an de
    46 FFL0EV > DARC........819 19.07.24 BCMNET  1028 999 LRA 36 "Radio Naciona
    47 FFL0EV > DARC........818 19.07.24 BCMNET  1152 999 International Lightho
    49 FT0BOX > HUMOR......1077 19.07.24 DEU      202 999 Witz des Tages
    50 FFL0EV > DARC........817 19.07.24 BCMNET 14204 999 BOR 29 2024 vom 19. J
    51 FFL0EV > DARC........816 18.07.24 BCMNET  2651 999 NASA entdeckt spektra
    52 FFL0EV > DARC........815 18.07.24 BCMNET 11105 999 Deutschland-Rundspruc
    54 FFL0EV > DARC........814 16.07.24 BCMNET   776 999 DA0HQ bedankt sich be
    55 FFL0EV > DARC........813 15.07.24 BCMNET  1064 999 Update für SatPC32 ve
    59 FFL0EV > DARC........812 13.07.24 BCMNET  1311 999 AMSAT-DL an YPSat-Emp
    60 FFL0EV > DARC........811 12.07.24 BCMNET   759 999 Dog Day am 26. August
    61 FFL0EV > DARC........810 12.07.24 BCMNET   746 999 Finalrunde!
    62 FFL0EV > DISTRIKT.....89 12.07.24 BCMNET 11601 999 BOR 28 2024 vom 11. J
    63 PGB0MB > ALLE........395 12.07.24 DEU      769 999 Update from: 17204958
    64 PGB0MB > ALLE........394 12.07.24 EU       768 999 Update from: 17204958
    65 FFL0EV > DARC........809 11.07.24 BCMNET  9643 999 Deutschland-Rundspruc
    67 APOLO1 > XNET.........24 11.07.24 EU      7828 999 (7+) Pr-Server.zip fu
    68 APOLO1 > XNET.........23 11.07.24 EU      7338 999 (7+) Pr-Server.zip fu
    69 APOLO1 > XNET.........22 11.07.24 EU      7828 999 (7+) Pr-Server.zip fu
    70 APOLO1 > XNET.........21 11.07.24 EU      7828 999 (7+) Pr-Server.zip fu
    71 APOLO1 > XNET.........20 11.07.24 EU      7828 999 (7+) Pr-Server.zip fu
    72 APOLO1 > XNET.........19 11.07.24 EU      7828 999 (7+) Pr-Server.zip fu
    73 APOLO1 > XNET.........18 11.07.24 EU      7828 999 (7+) Pr-Server.zip fu
    74 APOLO1 > XNET.........17 11.07.24 EU      7828 999 (7+) Pr-Server.zip fu
    75 APOLO1 > XNET.........16 11.07.24 EU      7828 999 (7+) Pr-Server.zip fu
    76 APOLO1 > XNET.........15 11.07.24 EU      7898 999 (7+) Pr-Server.zip fu
    77 PE1FTL > TECHNIK......20 11.07.24 DEU      276 999 Frage S-Werte
    78 FFL0EV > DARC........808 10.07.24 BCMNET  1035 999 Ariane 6 startete mit
    79 FFL0EV > DARC........807 10.07.24 BCMNET  1648 999 Firefly bringt neue A
    86 MO1AR  > HILFE........70 09.07.24 DEU      953 999 openBCM Problem mit C
    87 FFL0EV > DARC........806 07.07.24 BCMNET   731 999 EM: Wir sind weiter d
    88 FFL0EV > DARC........805 07.07.24 BCMNET  2345 999 Das LoTW kommt zurück
    89 FFL0EV > DARC........804 07.07.24 BCMNET   565 999 Trotz Urlaub am Ball
    90 APOLO1 > HUMOR......1076 06.07.24 DEU      132 999 Spruch des Tages
    91 APOLO1 > HUMOR......1075 06.07.24 DEU      206 999 Witz es Tages
    92 APOLO1 > HUMOR......1074 06.07.24 DEU      190 999 SMART Witz
    93 APOLO1 > HUMOR......1073 06.07.24 DEU      145 999 Auto Witz
    94 APOLO1 > HUMOR......1072 06.07.24 DEU      183 999 Klassen Witz
    95 FFL0EV > DISTRIKT.....88 05.07.24 BCMNET 12696 999 BOR 27 2024 vom 04. J
    96 FFL0EV > DARC........803 04.07.24 BCMNET 14080 999 Deutschland-Rundspruc
    97 FFL0EV > DARC........802 03.07.24 BCMNET  1701 999 DARC-Funkwetterberich
    98 FFL0EV > DARC........801 03.07.24 BCMNET  1512 999 ARDF-Jugend-WM: Erfol
    99 FFL0EV > DARC........800 03.07.24 BCMNET   463 999 Weiter im Viertelfina
   100 FFL0EV > DARC........799 03.07.24 BCMNET  1958 999 HR: Goldene Ehrennade
   107 DBO527 > INFO........178 03.07.24 DEU     1793 999 Router-Mail: Salzwede
   109 APOLO1 > HUMOR......1071 03.07.24 DEU      119 999 blondienen witz
   110 FFL0EV > DARC........798 01.07.24 BCMNET  2332 999 Goldene Ehrennadel ve
   112 FFL0EV > DARC........797 30.06.24 BCMNET  1578 999 HR: Erste Remotestati
   113 FFL0EV > DARC........796 30.06.24 BCMNET  2876 999 HR: Reichhaltiges Vor
   114 FFL0EV > DARC........795 30.06.24 BCMNET  1429 999 HR: Ehrung für DARC-C
   115 FFL0EV > DARC........794 30.06.24 BCMNET  1665 999 HR: 10 Jahre SDRA, Pr
   116 FFL0EV > DARC........793 30.06.24 BCMNET  1188 999 HR: OV Dresden-Reick
   117 APOLO1 > INFO........177 30.06.24 DEU      570 999 Was ist mit CB0ESN???
   121 FFL0EV > DARC........792 29.06.24 BCMNET   653 999 HR: Videobotschaft vo
   122 FFL0EV > DARC........791 29.06.24 BCMNET  2025 999 HR: Vier Goldene Ehre
   123 FFL0EV > DARC........790 29.06.24 BCMNET  2627 999 HR: Produkt-News aus
   124 DHH841 > BILDER.......65 29.06.24 BCMNET  196k 999 (BIN) QRV in CW und S
   125 DHH841 > BILDER.......64 29.06.24 BCMNET  199k 999 (BIN) QRV in CW bei M
   126 FFL0EV > DARC........789 28.06.24 BCMNET  1017 999 HR: Oliver Schlag, DL
   127 FFL0EV > DARC........788 28.06.24 BCMNET  3113 999 HR: "Unser Ziel: dass
   128 FFL0EV > DARC........787 28.06.24 BCMNET  1049 999 Rohde & Schwarz wird
   129 FFL0EV > DARC........786 28.06.24 BCMNET   975 999 Neues zu 50ohm.de: Le
   130 FFL0EV > DARC........785 28.06.24 BCMNET  1961 999 HR: Aufbautag – eine
   131 FFL0EV > DISTRIKT.....87 28.06.24 BCMNET 10512 999 BOR 26 2024 vom 27. J
   132 FFL0EV > DARC........784 27.06.24 BCMNET 12812 999 Deutschland-Rundspruc
   135 APOLO1 > HILFE........69 26.06.24 DEU      330 999 Frage zu BCM Fehler m
   136 PGB0MB > ALLE........393 26.06.24 DEU      769 999 Update from: 17192834
   137 PGB0MB > ALLE........392 26.06.24 EU       768 999 Update from: 17192834
   138 FFL0EV > DARC........783 26.06.24 BCMNET  1020 999 HR: Makerthon-Wettbew
   139 FFL0EV > DARC........782 25.06.24 BCMNET  1750 999 Novellierte Amateurfu
   140 FFL0EV > DARC........781 25.06.24 BCMNET  1688 999 QuickWatt in Version
   141 FFL0EV > DARC........780 25.06.24 BCMNET  1032 999 Neue AFuV – noch einm
   142 FFL0EV > DARC........779 25.06.24 BCMNET  1042 999 Deutschlandfunk Kultu
   144 MD2SAW > FBB..........10 24.06.24 EU      1789 999 NNTP-Client/Telegram-
   145 APOLO1 > HILFE........68 24.06.24 DEU      361 999 BCM mit keine Mails i
   147 MD2SAW > INFO........176 24.06.24 EU       168 999 Routing-Check fm MD2S
   152 FRA485 > APRS.........17 24.06.24 WW      3577 999 Station Liste -2021-j
   153 FRA485 > APRS.........16 24.06.24 WW      3577 999 Station Liste -2021-j
   154 FFL0EV > DARC........778 23.06.24 BCMNET  1092 999 Neues zu den Amateurf
   155 FFL0EV > DARC........777 23.06.24 BCMNET   797 999 Neues zu 50ohm.de: Vi
   157 MD2SAW > PR...........43 22.06.24 DEU     1827 999 Re: Info's zu PacketR
   158 PE1FTL > PR...........42 22.06.24 DL       920 999 Info's zu PacketRadio
   159 FFL0EV > DARC........776 21.06.24 BCMNET   908 999 EM-Funkbetrieb nach e
   160 FFL0EV > DISTRIKT.....86 21.06.24 BCMNET 11812 999 BOR 25 2024 vom 20. J
   161 FFL0EV > DARC........775 20.06.24 BCMNET  1118 999 HR: AfuBarcamp: Aha-E
   162 FFL0EV > DARC........774 20.06.24 BCMNET 11752 999 Deutschland-Rundspruc
   163 FFL0EV > DARC........773 19.06.24 BCMNET  2051 999 Ausbildungsbuch für K
   164 FFL0EV > DARC........772 18.06.24 BCMNET   566 999 EM-SES-Stationen QRV
   165 FFL0EV > DARC........771 18.06.24 BCMNET   856 999 HR: BCC-Contest-Unive
   166 FFL0EV > DARC........770 18.06.24 BCMNET  1326 999 HR: Programmplan der
   167 FFL0EV > DARC........769 18.06.24 BCMNET   686 999 Ergebnisse der Wahlen
   168 DHH841 > BILDER.......63 18.06.24 BCMNET  194k 999 (BIN) QRV in CW am Is
   169 MD2SAW > INFO........175 15.06.24 DEU     1278 999 Re: Re: MO0NET/MO1NET
   170 DAR182 > INFO........174 15.06.24 EU       355 999 Re: MO0NET/MO1NET/MO1
   171 DAR182 > INFO........173 15.06.24 EU       781 999 MO0NET/MO1NET/MO1BBS
   172 FFL0EV > DARC........768 15.06.24 BCMNET   590 999 EM-Diplom beantragen
   173 FFL0EV > DARC........767 14.06.24 BCMNET  1807 999 Neuer Vorsitzender im
   174 FFL0EV > DARC........766 14.06.24 BCMNET   721 999 Anstoß auf Kurzwelle
   175 FFL0EV > DISTRIKT.....85 14.06.24 BCMNET  9264 999 BOR 24 2024 vom 13. J
   176 FFL0EV > DISTRIKT.....84 14.06.24 BCMNET    54 999 BOR 23 2024 vom 06. J
   177 FFL0EV > DARC........765 13.06.24 BCMNET  1116 999 EM 2024 ... es geht l
   178 FFL0EV > DARC........764 13.06.24 BCMNET 11534 999 Deutschland-Rundspruc
   179 FFL0EV > DARC........763 13.06.24 BCMNET  1321 999 HR: Erlebe die Spannu
   180 FFL0EV > DARC........762 13.06.24 BCMNET  2237 999 Duldung auf 70 MHz un
   181 APOLO1 > PGP...........1 12.06.24 EU     10416 999 (7+) VT.EXE Fuer F6FB
   182 FFL0EV > DARC........761 11.06.24 BCMNET   977 999 Intruder Monitoring
   183 FFL0EV > DARC........760 10.06.24 BCMNET  1234 999 Weiterbildung des Ehr
   184 FFL0EV > DARC........759 10.06.24 BCMNET   891 999 Ham Radio: Frequenzen
   185 APOLO1 > INFO........172 09.06.24 EU       598 999 Forward abschaltung z
   186 MD2SAW > INFO........171 09.06.24 EU      2516 999 Re: CB0SAW Wartungsar
   187 DJB381 > TECHNIK......19 08.06.24 EU       401 999 TNC 9k6 Link
   188 FFL0EV > DARC........758 08.06.24 BCMNET   804 999 Neues zu 50ohm.de: Vi
   189 FFL0EV > DARC........757 07.06.24 BCMNET  1130 999 Am 9. Juni ist Anmeld
   190 FFL0EV > DARC........756 07.06.24 BCMNET   642 999 Höchste Sonnenflecken
   191 FFL0EV > DARC........755 06.06.24 BCMNET 12629 999 Deutschland-Rundspruc
   192 FFL0EV > DARC........754 05.06.24 BCMNET   736 999 AFuV im Bundesgesetzb
   193 FFL0EV > DARC........753 03.06.24 BCMNET  2154 999 100FK ist nun Geschic
   194 FFL0EV > DARC........752 03.06.24 BCMNET 12241 999 Deutschland-Rundspruc
   195 APOLO1 > PR...........41 02.06.24 DEU     8541 999 Mein Anfang mit Packe
   196 MD2SAW > TNN..........19 02.06.24 DEU     1367 999 Re: Linux Startscript
   197 DBO527 > INFO........170 01.06.24 DEU     1793 999 Router-Mail: Salzwede
   198 DAE595 > TNN..........18 01.06.24 DEU      385 999 Linux Startscript TNN
   199 FFL0EV > DISTRIKT.....83 31.05.24 BCMNET 12214 999 BOR 22 2024 vom 30. M
   200 DAR182 > INFO........169 29.05.24 EU      2240 999 MO0NET/MO1NET/MO1BBS
   201 FFL0EV > DARC........751 29.05.24 BCMNET  1583 999 Projekt Remotestation
   202 FFL0EV > DARC........750 29.05.24 BCMNET   965 999 Intruder Monitoring
   203 FFL0EV > DARC........749 29.05.24 BCMNET   943 999 HAM RADIO vom 28. bis
   204 DHH841 > BILDER.......62 29.05.24 BCMNET  255k 999 (BIN) QRV in CW bei W
   205 FFL0EV > DARC........748 28.05.24 BCMNET  1663 999 Thomas Wrede, DF2OO,
   206 FFL0EV > DARC........747 28.05.24 BCMNET  1282 999 Contest University in
   207 FFL0EV > DARC........746 28.05.24 BCMNET  2336 999 Funkamateure üben den
   208 MD2SAW > INFO........168 26.05.24 EU      2341 999 CB0SAW Wartungsarbeit
   209 APOLO1 > INFO........167 26.05.24 EU      1985 999 AP2BOX Neue Forward I
   210 FFL0EV > DARC........745 25.05.24 BCMNET  1643 999 Hamvention
   211 FFL0EV > DARC........744 25.05.24 BCMNET   843 999 Neues zu 50ohm.de: Vi
   212 FFL0EV > DARC........743 25.05.24 BCMNET   854 999 FT4GL – Glorioso Isla
   213 DJB381 > HILFE........67 24.05.24 EU       600 999 DOS Nodesoftware
   214 FFL0EV > DISTRIKT.....82 24.05.24 BCMNET 14459 999 BOR 21 2024 vom 23. M
   215 FFL0EV > DARC........742 23.05.24 BCMNET   975 999 50ohm-Fragestunde des
   216 FFL0EV > DARC........741 23.05.24 BCMNET  1311 999 Neue Rufzeichenregelu
   217 FFL0EV > DARC........740 23.05.24 BCMNET  1988 999 Hackerangriff auf Log
   218 FFL0EV > DARC........739 23.05.24 BCMNET 11989 999 Deutschland-Rundspruc
   219 FFL0EV > DARC........738 22.05.24 BCMNET  2605 999 Was ist die beliebtes
   220 FFL0EV > DARC........737 21.05.24 BCMNET  1764 999 Mehrere QO-100-DXpedi
   221 FFL0EV > DARC........736 21.05.24 BCMNET  1242 999 Polarlichter über Afr
   222 DHH841 > BILDER.......61 20.05.24 BCMNET  280k 999 (BIN) QRV in CW und F
   223 FFL0EV > DARC........735 20.05.24 BCMNET  2659 999 Hamvention: Sonntag 1
   224 FFL0EV > DARC........734 20.05.24 BCMNET  2829 999 Hamvention: Andrang a
   225 FFL0EV > DARC........733 20.05.24 BCMNET  2482 999 Hamvention: Mit Predi
   226 APOLO1 > HILFE........66 20.05.24 EU      2217 999 FBB-BPQ.txt Hilfe
   227 APOLO1 > INFO........166 19.05.24 EU      4364 999 AP2BOX Forward Inform
   228 PE1FTL > HUMOR......1070 19.05.24 DEU      481 999 Wissenschaft mal so b
   229 FFL0EV > DARC........732 18.05.24 BCMNET  2223 999 Hamvention: "Let‘s su
   230 FFL0EV > DARC........731 18.05.24 BCMNET   571 999 Logbook of the World
   231 FFL0EV > DARC........730 18.05.24 BCMNET  2356 999 Hamvention: Technisch
   232 FFL0EV > DARC........729 18.05.24 BCMNET   885 999 Volles Haus beim Dial
   233 FFL0EV > DARC........728 18.05.24 BCMNET  3615 999 Hamvention: Aufbautag
   234 FFL0EV > DARC........727 18.05.24 BCMNET  1121 999 QO-100-Kontakt mit Ne
   235 PGB0MB > ALLE........391 18.05.24 DEU      769 999 Update from: 17157290
   236 PGB0MB > ALLE........390 18.05.24 EU       768 999 Update from: 17157290
   237 FFL0EV > DISTRIKT.....81 18.05.24 BCMNET 12137 999 BOR 20 2024 vom 16. M
   238 FFL0EV > DARC........726 16.05.24 BCMNET 13256 999 Deutschland-Rundspruc
   239 FFL0EV > DARC........725 16.05.24 BCMNET  2137 999 DARC-Messeteam in den
   240 FFL0EV > DARC........724 16.05.24 BCMNET   557 999 "Im Dialog mit dem Vo
   241 FFL0EV > DARC........723 16.05.24 BCMNET  1009 999 Monitoring-Team der R
   242 FFL0EV > DARC........722 16.05.24 BCMNET   827 999 VDE Kassel zu Besuch
   243 FFL0EV > DARC........721 16.05.24 BCMNET  2467 999 Gesucht: Ihre Erfahru
   244 FFL0EV > DARC........720 16.05.24 BCMNET  1563 999 US-Amateurfunkmesse H
   245 FFL0EV > DARC........719 16.05.24 BCMNET   892 999 Funkbetrieb
   246 DJB381 > HUMOR......1069 14.05.24 DEU      225 999 2 Kerzen
   247 FFL0EV > DARC........718 11.05.24 BCMNET   925 999 Nordlichter über Baye
   248 FFL0EV > DARC........717 10.05.24 BCMNET  1447 999 FUNK-ÜBUNG "BLUE HAM"
   249 FFL0EV > DISTRIKT.....80 10.05.24 BCMNET  9607 999 BOR 19 2024 vom 09. M
   250 PE1FTL > HUMOR......1068 10.05.24 DEU      487 999 Haeschenwitz
   251 PE1FTL > HUMOR......1067 09.05.24 DEU      249 999 Kolumbus
   252 FFL0EV > DARC........716 09.05.24 BCMNET 11961 999 Deutschland-Rundspruc
   253 FFL0EV > DARC........715 08.05.24 BCMNET  2043 999 URE feiert 75. Jubilä
   254 FFL0EV > DARC........714 08.05.24 BCMNET  1313 999 Auszeichnungen
   255 FFL0EV > DARC........713 08.05.24 BCMNET  1339 999 50ohm-Fragestunde des
   256 FFL0EV > DARC........712 08.05.24 BCMNET  3007 999 DARC Sunspots 2024
   257 FFL0EV > DARC........711 08.05.24 BCMNET  1743 999 Forschungskampagne /
   258 MD2SAW > HUMOR......1066 08.05.24 DEU      283 999 Re: Elektriker-Hemd
   259 DJB381 > HUMOR......1065 07.05.24 DEU      528 999 2 Tauben
   260 PE1FTL > HUMOR......1064 07.05.24 DEU      239 999 Elektriker-Hemd
   261 APOLO1 > INFO........165 07.05.24 EU      5674 999 System Info der AP2BO
   262 APOLO1 > INFO........164 07.05.24 EU      1033 999 System InfO vom AP1NO
   263 APOLO1 > INFO........163 07.05.24 EU       877 999 System Info vom AP0NO
   264 FFL0EV > DARC........710 06.05.24 BCMNET  1509 999 Aufruf zur Beteiligun
   265 FFL0EV > DARC........709 06.05.24 BCMNET  1072 999 Distriktsvorstand Köl
   266 FFL0EV > DARC........708 06.05.24 BCMNET   606 999 ESA: Die flauschige K
   267 FFL0EV > DARC........707 06.05.24 BCMNET  2207 999 AMSAT-Italia bekommt
   268 MD2SAW > ALLE........389 06.05.24 EU      6064 999 FWD: Packet Radio, wh
   269 MD2SAW > PR...........40 06.05.24 EU      4092 999 EU-Convers DE/ENG
   270 DBO527 > INFO........162 04.05.24 DEU     1793 999 Router-Mail: Salzwede
   271 FFL0EV > DISTRIKT.....79 03.05.24 BCMNET 11798 999 BOR 18 2024 vom 02. M
   272 DHH841 > BILDER.......60 02.05.24 BCMNET  243k 999 (BIN) QRV in CW und S
   273 FFL0EV > DARC........706 02.05.24 BCMNET 11913 999 Deutschland-Rundspruc
   274 FFL0EV > DARC........705 02.05.24 BCMNET   711 999 CEPT-Novice-Lizenz in
   275 FFL0EV > DARC........704 29.04.24 BCMNET  1149 999 25. Europatag der Sch
   276 FFL0EV > DARC........703 29.04.24 BCMNET  1009 999 Ergebnisse der Vorsta
   277 FFL0EV > DARC........702 29.04.24 BCMNET  1318 999 Technik-Vortrag auf T
   278 FFL0EV > DARC........701 29.04.24 BCMNET  1794 999 Volle Hallen beim 6.
   279 PE1FTL > HOBBY.........5 29.04.24 EU       625 999 Mitstreiter gesucht/F
   280 PE1FTL > HOBBY.........4 29.04.24 EU       125 999 Fellow campaigners wa
   281 FFL0EV > DARC........700 26.04.24 BCMNET  1166 999 27. April: 6. FUNK.TA
   282 FFL0EV > DARC........699 26.04.24 BCMNET  1084 999 MFJ beendet seine Pro
   283 FFL0EV > DISTRIKT.....78 26.04.24 BCMNET 14504 999 BOR 17 2024 vom 25. A
   284 FFL0EV > DARC........698 25.04.24 BCMNET 15342 999 Deutschland-Rundspruc
   285 FFL0EV > DARC........697 25.04.24 BCMNET  1657 999 BNetzA veröffentlicht
   286 FFL0EV > DARC........696 25.04.24 BCMNET  1410 999 Guglielmo Marconi zum
   287 FFL0EV > DARC........695 24.04.24 BCMNET   615 999 Die neue OV-Info ist
   288 FFL0EV > DARC........694 24.04.24 BCMNET   692 999 Distriktsversammlung
   289 FFL0EV > DARC........693 24.04.24 BCMNET  1324 999 Neues Update der DARC
   290 FFL0EV > DARC........692 23.04.24 BCMNET   688 999 Vorstandswahlen im Di
   291 FFL0EV > DARC........691 19.04.24 BCMNET  2366 999 Amateurfunkgruppe der
   292 FFL0EV > DISTRIKT.....77 19.04.24 BCMNET 13556 999 BOR 16 2024 vom 18. A
   293 D1TNE  > ALLE........388 18.04.24 EU      1193 999 Node CallBook
   294 FFL0EV > DARC........690 18.04.24 BCMNET 12661 999 Deutschland-Rundspruc
   295 FFL0EV > DARC........689 18.04.24 BCMNET  2088 999 Re: Intruder Monitori
   296 FFL0EV > DARC........688 17.04.24 BCMNET   436 999 DA24WARD QRV
   297 FFL0EV > DARC........687 17.04.24 BCMNET  1786 999 Jugendmeeting auf Tre
   298 FFL0EV > DARC........686 17.04.24 BCMNET   592 999 Vorstand im Distrikt
   299 FFL0EV > DARC........685 17.04.24 BCMNET  1415 999 Intruder Monitoring
   300 FFL0EV > DARC........684 17.04.24 BCMNET  1617 999 Bald geht’s los: 6. F

 21.07.2024 00:46:02lZurueck Nach oben